createdAt,value
2018-11-20T00:05:09.266Z,6.13
2018-11-20T00:10:30.771Z,6.22
2018-11-20T00:15:55.588Z,6.05
2018-11-20T00:21:31.021Z,6.33
2018-11-20T00:27:09.168Z,6.26
2018-11-20T00:32:30.941Z,6.29
2018-11-20T00:37:46.326Z,6.23
2018-11-20T00:43:18.460Z,5.96
2018-11-20T00:48:53.449Z,6.08
2018-11-20T00:54:05.612Z,6.12
2018-11-20T00:59:28.847Z,6.08
2018-11-20T01:05:01.576Z,6.20
2018-11-20T01:10:28.429Z,6.23
2018-11-20T01:15:46.676Z,6.19
2018-11-20T01:21:19.006Z,6.17
2018-11-20T01:26:32.725Z,6.14
2018-11-20T01:31:54.429Z,6.48
2018-11-20T01:37:16.289Z,6.13
2018-11-20T01:42:35.296Z,6.11
2018-11-20T01:48:13.722Z,6.31
2018-11-20T01:53:42.572Z,6.18
2018-11-20T01:59:02.730Z,6.13
2018-11-20T02:04:24.802Z,6.12
2018-11-20T02:10:18.809Z,6.19
2018-11-20T02:15:49.866Z,6.20
2018-11-20T02:21:03.432Z,6.14
2018-11-20T02:26:16.354Z,6.08
2018-11-20T02:31:26.364Z,6.03
2018-11-20T02:36:54.576Z,6.00
2018-11-20T02:42:15.261Z,6.00
2018-11-20T02:47:40.132Z,5.95
2018-11-20T02:53:02.225Z,5.89
2018-11-20T02:58:28.056Z,5.76
2018-11-20T03:03:48.819Z,5.83
2018-11-20T03:08:59.452Z,5.78
2018-11-20T03:14:20.098Z,5.89
2018-11-20T03:19:50.989Z,5.85
2018-11-20T03:25:17.089Z,5.75
2018-11-20T03:31:18.102Z,5.73
2018-11-20T03:36:42.391Z,5.73
2018-11-20T03:42:04.499Z,5.71
2018-11-20T03:47:25.046Z,5.66
2018-11-20T03:52:37.539Z,5.63
2018-11-20T03:57:59.618Z,5.68
2018-11-20T04:03:19.896Z,5.65
2018-11-20T04:08:56.927Z,5.72
2018-11-20T04:14:26.225Z,5.81
2018-11-20T04:19:36.386Z,5.79
2018-11-20T04:24:57.313Z,5.88
2018-11-20T04:31:13.865Z,5.98
2018-11-20T04:36:38.660Z,5.84
2018-11-20T04:41:58.068Z,5.85
2018-11-20T04:47:11.917Z,5.84
2018-11-20T04:52:42.784Z,6.01
2018-11-20T04:57:58.352Z,6.17
2018-11-20T05:03:35.720Z,5.94
2018-11-20T05:08:45.626Z,5.89
2018-11-20T05:14:06.249Z,5.95
2018-11-20T05:19:34.010Z,5.80
2018-11-20T05:24:58.909Z,5.78
2018-11-20T05:30:21.017Z,5.72
2018-11-20T05:35:33.929Z,5.76
2018-11-20T05:40:43.689Z,5.81
2018-11-20T05:46:04.358Z,5.83
2018-11-20T05:51:18.795Z,5.87
2018-11-20T05:56:43.533Z,5.97
2018-11-20T06:01:53.451Z,5.76
2018-11-20T06:07:04.140Z,6.00
2018-11-20T06:12:32.010Z,5.92
2018-11-20T06:17:52.898Z,5.90
2018-11-20T06:23:14.982Z,5.67
2018-11-20T06:28:26.759Z,5.45
2018-11-20T06:33:50.392Z,5.38
2018-11-20T06:39:05.581Z,5.46
2018-11-20T06:44:26.268Z,5.49
2018-11-20T06:49:41.283Z,5.54
2018-11-20T06:55:03.361Z,5.58
2018-11-20T07:00:43.613Z,5.51
2018-11-20T07:06:04.171Z,5.72
2018-11-20T07:11:28.825Z,5.56
2018-11-20T07:16:52.178Z,5.48
2018-11-20T07:22:02.107Z,5.33
2018-11-20T07:27:24.378Z,5.34
2018-11-20T07:32:40.553Z,5.38
2018-11-20T07:38:20.831Z,5.47
2018-11-20T07:43:29.979Z,5.56
2018-11-20T07:48:42.083Z,5.49
2018-11-20T07:54:19.110Z,5.35
2018-11-20T07:59:40.038Z,5.40
2018-11-20T08:05:05.029Z,5.44
2018-11-20T08:10:25.564Z,5.39
2018-11-20T08:15:56.597Z,5.29
2018-11-20T08:21:05.248Z,5.40
2018-11-20T08:26:26.023Z,5.10
2018-11-20T08:32:06.155Z,5.22
2018-11-20T08:37:18.092Z,5.42
2018-11-20T08:42:38.510Z,5.40
2018-11-20T08:47:51.936Z,5.64
2018-11-20T08:53:23.484Z,5.36
2018-11-20T08:58:51.392Z,5.35
2018-11-20T09:04:16.084Z,5.54
2018-11-20T09:09:39.820Z,5.66
2018-11-20T09:15:00.622Z,5.34
2018-11-20T09:20:28.672Z,5.30
2018-11-20T09:25:53.527Z,5.29
2018-11-20T09:31:14.093Z,5.39
2018-11-20T09:36:25.222Z,5.61
2018-11-20T09:41:35.380Z,5.35
2018-11-20T09:46:54.903Z,5.56
2018-11-20T09:52:16.275Z,5.57
2018-11-20T09:57:53.314Z,5.75
2018-11-20T10:03:18.313Z,5.66
2018-11-20T10:08:46.420Z,5.63
2018-11-20T10:14:07.346Z,5.61
2018-11-20T10:19:21.100Z,5.45
2018-11-20T10:24:49.329Z,5.74
2018-11-20T10:30:20.431Z,5.71
2018-11-20T10:35:48.507Z,5.80
2018-11-20T10:41:09.346Z,5.66
2018-11-20T10:46:22.248Z,5.75
2018-11-20T10:51:50.055Z,5.71
2018-11-20T10:57:10.876Z,6.15
2018-11-20T11:02:31.678Z,5.83
2018-11-20T11:07:53.151Z,6.30
2018-11-20T11:13:13.624Z,6.28
2018-11-20T11:18:53.994Z,6.08
2018-11-20T11:24:14.532Z,6.38
2018-11-20T11:29:35.165Z,6.13
2018-11-20T11:34:57.252Z,6.28
2018-11-20T11:40:13.476Z,6.46
2018-11-20T11:45:24.957Z,6.29
2018-11-20T11:50:39.954Z,6.36
2018-11-20T11:56:00.819Z,6.19
2018-11-20T12:06:54.224Z,6.50
2018-11-20T12:12:15.315Z,6.19
2018-11-20T12:17:34.608Z,6.26
2018-11-20T12:22:55.655Z,6.15
2018-11-20T12:28:30.067Z,6.09
2018-11-20T12:33:41.997Z,6.09
2018-11-20T12:39:02.713Z,6.07
2018-11-20T12:44:26.770Z,6.31
2018-11-20T12:49:54.801Z,6.28
2018-11-20T12:55:33.961Z,6.14
2018-11-20T13:00:53.703Z,6.03
2018-11-20T13:06:34.068Z,6.10
2018-11-20T13:12:11.384Z,5.96
2018-11-20T13:17:29.493Z,6.18
2018-11-20T13:22:55.640Z,6.12
2018-11-20T13:28:15.507Z,6.14
2018-11-20T13:33:27.025Z,6.25
2018-11-20T13:38:56.751Z,6.08
2018-11-20T13:44:18.831Z,6.13
2018-11-20T13:49:43.684Z,6.15
2018-11-20T13:55:04.254Z,6.17
2018-11-20T14:00:38.234Z,6.31
2018-11-20T14:05:59.011Z,6.25
2018-11-20T14:11:19.740Z,6.26
2018-11-20T14:16:41.850Z,6.30
2018-11-20T14:22:03.267Z,6.01
2018-11-20T14:27:40.340Z,6.20
2018-11-20T14:32:58.550Z,6.23
2018-11-20T14:38:21.600Z,6.15
2018-11-20T14:43:37.638Z,6.34
2018-11-20T14:48:59.828Z,6.34
2018-11-20T14:54:21.012Z,6.27
2018-11-20T14:59:56.356Z,6.33
2018-11-20T15:05:11.044Z,5.72
2018-11-20T15:10:20.827Z,5.67
2018-11-20T15:15:37.885Z,5.17
2018-11-20T15:20:58.711Z,5.10
2018-11-20T15:26:14.257Z,4.89
2018-11-20T15:31:38.895Z,4.53
2018-11-20T15:36:59.445Z,4.55
2018-11-20T15:42:31.006Z,4.14
2018-11-20T15:47:48.423Z,4.28
2018-11-20T15:53:08.913Z,4.35
2018-11-20T15:58:29.447Z,4.25
2018-11-20T16:03:58.180Z,4.26
2018-11-20T16:09:18.808Z,4.17
2018-11-20T16:14:40.915Z,4.20
2018-11-20T16:20:04.104Z,4.14
2018-11-20T16:25:24.905Z,4.04
2018-11-20T16:30:59.115Z,4.02
2018-11-20T16:36:21.228Z,3.97
2018-11-20T16:41:46.019Z,3.83
2018-11-20T16:47:06.640Z,3.96
2018-11-20T16:52:37.539Z,4.02
2018-11-20T16:57:58.169Z,4.14
2018-11-20T17:03:18.873Z,4.19
2018-11-20T17:08:45.796Z,4.11
2018-11-20T17:14:23.045Z,4.28
2018-11-20T17:19:32.659Z,4.47
2018-11-20T17:24:53.398Z,4.44
2018-11-20T17:30:15.487Z,4.41
2018-11-20T17:35:52.765Z,4.29
2018-11-20T17:41:09.557Z,4.43
2018-11-20T17:46:31.699Z,4.27
2018-11-20T17:51:56.435Z,4.43
2018-11-20T17:57:21.328Z,4.48
2018-11-20T18:02:42.092Z,4.56
2018-11-20T18:08:13.075Z,4.49
2018-11-20T18:13:30.658Z,4.43
2018-11-20T18:18:51.595Z,4.34
2018-11-20T18:24:13.666Z,4.40
2018-11-20T18:29:25.233Z,4.35
2018-11-20T18:34:45.499Z,4.45
2018-11-20T18:40:05.863Z,4.47
2018-11-20T18:45:20.285Z,4.37
2018-11-20T18:50:45.358Z,4.29
2018-11-20T18:56:01.973Z,4.57
2018-11-20T19:01:23.152Z,4.46
2018-11-20T19:06:43.750Z,4.55
2018-11-20T19:12:09.690Z,4.45
2018-11-20T19:17:30.746Z,4.36
2018-11-20T19:22:55.378Z,4.27
2018-11-20T19:28:16.035Z,4.40
2018-11-20T19:33:47.588Z,4.41
2018-11-20T19:39:27.696Z,4.43
2018-11-20T19:44:50.937Z,4.50
2018-11-20T19:50:11.834Z,4.56
2018-11-20T19:55:48.937Z,4.65
2018-11-20T20:01:09.990Z,4.46
2018-11-20T20:06:32.072Z,4.48
2018-11-20T20:11:42.590Z,4.48
2018-11-20T20:17:00.902Z,4.65
2018-11-20T20:22:21.813Z,4.47
2018-11-20T20:27:42.697Z,4.55
2018-11-20T20:33:04.031Z,4.63
2018-11-20T20:38:41.049Z,4.68
2018-11-20T20:44:01.625Z,4.73
2018-11-20T20:49:22.401Z,4.75
2018-11-20T20:54:43.055Z,4.72
2018-11-20T21:00:18.676Z,4.86
2018-11-20T21:05:39.494Z,4.75
2018-11-20T21:11:01.578Z,4.69
2018-11-20T21:16:31.466Z,4.57
2018-11-20T21:21:46.487Z,4.69
2018-11-20T21:27:23.516Z,4.76
2018-11-20T21:32:54.591Z,4.79
2018-11-20T21:38:34.748Z,4.66
2018-11-20T21:44:09.039Z,4.49
2018-11-20T21:49:28.324Z,4.58
2018-11-20T21:54:44.415Z,4.61
2018-11-20T22:00:27.268Z,4.70
2018-11-20T22:05:43.487Z,4.53
2018-11-20T22:11:23.736Z,4.54
2018-11-20T22:16:51.245Z,4.56
2018-11-20T22:22:11.678Z,4.66
2018-11-20T22:27:32.386Z,4.54
2018-11-20T22:33:09.379Z,4.47
2018-11-20T22:38:34.527Z,4.50
2018-11-20T22:43:54.954Z,4.42
2018-11-20T22:49:15.554Z,4.46
2018-11-20T22:54:43.404Z,4.72
2018-11-20T23:00:05.494Z,4.76
2018-11-20T23:05:32.145Z,4.91
2018-11-20T23:10:34.616Z,4.95
2018-11-20T23:15:37.106Z,5.10
2018-11-20T23:20:39.592Z,5.03
2018-11-20T23:25:42.082Z,5.09
2018-11-20T23:30:44.567Z,5.09
2018-11-20T23:35:47.041Z,4.88
2018-11-20T23:40:49.517Z,4.87
2018-11-20T23:45:51.995Z,4.88
2018-11-20T23:50:54.511Z,4.95
2018-11-20T23:55:56.996Z,4.96
